Carousel Center, New York
Current Conditions -  °F | °C
As of 12:54 PM on Saturday 20 Dec 2014 (Local Time) from KSYR Reporting Station
Overcast Overcast  
Wind Chill: 27°   Ceiling: 2000
Heat Index: 27°   Visibility: 10mi
Dew Point: 21°   Wind: 0mph
Humidity: 78%   Direction: NA
Pressure: 30.28"   Gusts: NA
Location:  43.0685°N, 76.1709°W
Report Text: KSYR 201754Z 00000KT 10SM OVC020 M03/M06 A3028 RMK AO2 SLP256 T10281061 11022 21056 58008
Loading
Personal Weather Stations






























Interactive Weather Map New forecast layout! Learn more

10-Day Weather Forecast

Advertisements
Track Severe Weather on mobile